Time;durP1;ratioP1;P1;durP2;ratioP2;P2;SDS_P1;SDS_P2;PMS_P1;PMS_P2;Temp;Humidity;BMP_temperature;BMP_pressure;BME280_temperature;BME280_humidity;BME280_pressure;Samples;Min_cycle;Max_cycle;Signal;HPM_P1;HPM_P2
2023/10/26 00:00:51;;;;;;;1.27;0.40;;;;;;;;;;5112996;28;20142;-49
2023/10/26 00:03:18;;;;;;;0.68;0.30;;;;;;;;;;5104508;28;20047;-52
2023/10/26 00:05:44;;;;;;;0.95;0.40;;;;;;;;;;5113037;28;20452;-54
2023/10/26 00:08:11;;;;;;;0.93;0.40;;;;;;;;;;5100928;28;20051;-52
2023/10/26 00:10:39;;;;;;;2.15;0.40;;;;;;;;;;5107741;28;20052;-48
2023/10/26 00:13:06;;;;;;;1.33;0.30;;;;;;;;;;5108323;28;20058;-61
2023/10/26 00:15:34;;;;;;;0.90;0.40;;;;;;;;;;5108475;27;20126;-51
2023/10/26 00:18:01;;;;;;;1.33;0.30;;;;;;;;;;5106025;28;20062;-53
2023/10/26 00:20:27;;;;;;;0.50;0.20;;;;;;;;;;5104270;28;20040;-52
2023/10/26 00:22:54;;;;;;;0.38;0.28;;;;;;;;;;5108837;28;20130;-51
2023/10/26 00:25:21;;;;;;;0.65;0.30;;;;;;;;;;5105394;28;20484;-53
2023/10/26 00:27:48;;;;;;;1.33;0.50;;;;;;;;;;5112409;28;20079;-58
2023/10/26 00:30:14;;;;;;;1.15;0.30;;;;;;;;;;5112469;28;20126;-48
2023/10/26 00:32:42;;;;;;;3.15;0.45;;;;;;;;;;5106912;28;20127;-52
2023/10/26 00:35:09;;;;;;;1.02;0.40;;;;;;;;;;5091727;28;20427;-51
2023/10/26 00:37:36;;;;;;;0.47;0.20;;;;;;;;;;5107494;28;20058;-52
2023/10/26 00:40:04;;;;;;;0.70;0.30;;;;;;;;;;5112744;27;20090;-51
2023/10/26 00:42:30;;;;;;;1.27;0.40;;;;;;;;;;5107234;28;20126;-51
2023/10/26 00:44:57;;;;;;;1.25;0.50;;;;;;;;;;5107223;28;20075;-49
2023/10/26 00:47:25;;;;;;;1.35;0.40;;;;;;;;;;5103987;28;20083;-55
2023/10/26 00:49:54;;;;;;;0.95;0.30;;;;;;;;;;5107357;28;20395;-48
2023/10/26 00:52:22;;;;;;;1.95;0.50;;;;;;;;;;5111304;28;20071;-52
2023/10/26 00:54:51;;;;;;;0.75;0.30;;;;;;;;;;5111845;28;20086;-50
2023/10/26 00:57:20;;;;;;;1.40;0.30;;;;;;;;;;5099471;28;20065;-50
2023/10/26 00:59:47;;;;;;;1.20;0.38;;;;;;;;;;5091456;28;20052;-51
2023/10/26 01:02:16;;;;;;;1.42;0.40;;;;;;;;;;5106847;27;20139;-52
2023/10/26 01:04:42;;;;;;;2.40;0.32;;;;;;;;;;5106621;28;20122;-52
2023/10/26 01:07:11;;;;;;;1.38;0.38;;;;;;;;;;5111795;28;20143;-51
2023/10/26 01:09:38;;;;;;;1.40;0.40;;;;;;;;;;5111623;28;20112;-54
2023/10/26 01:12:05;;;;;;;0.80;0.40;;;;;;;;;;5111004;28;20096;-51
2023/10/26 01:14:32;;;;;;;1.30;0.30;;;;;;;;;;5111148;28;20082;-52
2023/10/26 01:16:58;;;;;;;0.63;0.40;;;;;;;;;;5111412;28;20130;-54
2023/10/26 01:19:37;;;;;;;0.35;0.30;;;;;;;;;;5106488;28;20508;-50
2023/10/26 01:22:06;;;;;;;1.02;0.40;;;;;;;;;;5093434;28;20388;-53
2023/10/26 01:24:32;;;;;;;0.40;0.30;;;;;;;;;;5111465;28;20574;-54
2023/10/26 01:26:59;;;;;;;0.63;0.38;;;;;;;;;;5109382;28;20506;-51
2023/10/26 01:29:26;;;;;;;0.63;0.20;;;;;;;;;;5102984;28;20098;-50
2023/10/26 01:31:52;;;;;;;1.40;0.30;;;;;;;;;;5108514;28;20048;-50
2023/10/26 01:34:19;;;;;;;1.95;0.40;;;;;;;;;;5106871;28;20131;-53
2023/10/26 01:36:46;;;;;;;1.33;0.20;;;;;;;;;;5107439;28;20143;-50
2023/10/26 01:39:15;;;;;;;0.52;0.28;;;;;;;;;;5111419;28;20088;-55
2023/10/26 01:41:42;;;;;;;0.95;0.40;;;;;;;;;;5109889;28;20130;-52
2023/10/26 01:44:09;;;;;;;1.63;0.52;;;;;;;;;;5110236;28;20058;-54
2023/10/26 01:46:35;;;;;;;0.75;0.20;;;;;;;;;;5113107;28;20534;-48
2023/10/26 01:49:02;;;;;;;0.40;0.20;;;;;;;;;;5096748;28;20094;-53
2023/10/26 01:51:29;;;;;;;1.45;0.30;;;;;;;;;;5095231;28;20058;-50
2023/10/26 01:53:56;;;;;;;1.02;0.40;;;;;;;;;;5095947;28;20419;-52
2023/10/26 01:56:24;;;;;;;2.25;0.40;;;;;;;;;;5115723;28;20128;-49
2023/10/26 01:58:50;;;;;;;0.30;0.22;;;;;;;;;;5119425;27;20127;-50
2023/10/26 02:01:17;;;;;;;1.15;0.40;;;;;;;;;;5106337;28;20084;-56
2023/10/26 02:03:44;;;;;;;0.75;0.38;;;;;;;;;;5116896;27;20127;-54
2023/10/26 02:06:10;;;;;;;0.47;0.20;;;;;;;;;;5111881;28;20079;-49
2023/10/26 02:08:37;;;;;;;0.43;0.30;;;;;;;;;;5110031;28;20496;-51
2023/10/26 02:11:04;;;;;;;0.40;0.25;;;;;;;;;;5115175;28;20135;-52
2023/10/26 02:13:32;;;;;;;0.63;0.30;;;;;;;;;;5115267;28;20079;-53
2023/10/26 02:16:01;;;;;;;1.10;0.30;;;;;;;;;;5106731;28;20131;-52
2023/10/26 02:18:28;;;;;;;0.32;0.20;;;;;;;;;;5105852;28;20054;-51
2023/10/26 02:20:55;;;;;;;1.10;0.35;;;;;;;;;;5111882;28;20083;-56
2023/10/26 02:23:22;;;;;;;0.90;0.32;;;;;;;;;;5107365;28;20418;-53
2023/10/26 02:25:48;;;;;;;1.15;0.40;;;;;;;;;;5115311;28;20598;-55
2023/10/26 02:28:16;;;;;;;0.30;0.30;;;;;;;;;;5098409;28;20047;-54
2023/10/26 02:30:45;;;;;;;0.65;0.30;;;;;;;;;;5107099;28;20095;-55
2023/10/26 02:33:12;;;;;;;0.63;0.30;;;;;;;;;;5094079;28;20052;-54
2023/10/26 02:35:39;;;;;;;0.65;0.32;;;;;;;;;;5094708;28;20414;-50
2023/10/26 02:38:06;;;;;;;1.27;0.47;;;;;;;;;;5105364;28;20086;-49
2023/10/26 02:40:36;;;;;;;1.10;0.40;;;;;;;;;;5114634;28;20385;-51
2023/10/26 02:43:03;;;;;;;1.45;0.30;;;;;;;;;;5114653;28;20492;-53
2023/10/26 02:45:30;;;;;;;1.27;0.43;;;;;;;;;;5108586;28;20498;-57
2023/10/26 02:47:58;;;;;;;0.57;0.30;;;;;;;;;;5114681;28;20127;-52
2023/10/26 02:50:26;;;;;;;1.98;0.40;;;;;;;;;;5114497;28;20131;-51
2023/10/26 02:52:52;;;;;;;1.00;0.30;;;;;;;;;;5114337;28;20105;-51
2023/10/26 02:55:19;;;;;;;1.55;0.40;;;;;;;;;;5114346;28;20043;-52
2023/10/26 02:57:46;;;;;;;1.77;0.50;;;;;;;;;;5106032;28;20222;-54
2023/10/26 03:00:14;;;;;;;1.33;0.30;;;;;;;;;;5106068;28;20519;-54
2023/10/26 03:02:41;;;;;;;1.40;0.80;;;;;;;;;;5114213;28;20044;-55
2023/10/26 03:05:09;;;;;;;1.30;0.40;;;;;;;;;;5102904;28;20105;-54
2023/10/26 03:07:36;;;;;;;0.95;0.40;;;;;;;;;;5100601;28;20052;-51
2023/10/26 03:10:04;;;;;;;1.13;0.40;;;;;;;;;;5114057;28;20083;-56
2023/10/26 03:12:31;;;;;;;1.58;0.60;;;;;;;;;;5114325;28;20410;-55
2023/10/26 03:14:58;;;;;;;1.17;0.40;;;;;;;;;;5114314;28;20132;-52
2023/10/26 03:17:24;;;;;;;1.05;0.30;;;;;;;;;;5113907;28;20126;-51
2023/10/26 03:19:51;;;;;;;0.50;0.30;;;;;;;;;;5114127;28;20086;-55
2023/10/26 03:22:19;;;;;;;0.95;0.47;;;;;;;;;;5113897;28;20096;-53
2023/10/26 03:24:46;;;;;;;0.82;0.40;;;;;;;;;;5107234;28;20122;-52
2023/10/26 03:27:12;;;;;;;1.08;0.38;;;;;;;;;;5113047;27;20040;-52
2023/10/26 03:29:39;;;;;;;0.57;0.40;;;;;;;;;;5116363;27;20043;-54
2023/10/26 03:32:07;;;;;;;0.68;0.43;;;;;;;;;;5105609;27;20044;-54
2023/10/26 03:34:35;;;;;;;1.20;0.35;;;;;;;;;;5103529;28;20127;-52
2023/10/26 03:37:02;;;;;;;1.90;0.40;;;;;;;;;;5109608;28;20135;-50
2023/10/26 03:39:31;;;;;;;0.85;0.40;;;;;;;;;;5109829;27;20043;-54
2023/10/26 03:41:58;;;;;;;1.05;0.50;;;;;;;;;;5116534;27;20079;-52
2023/10/26 03:44:24;;;;;;;0.68;0.35;;;;;;;;;;5110456;27;20135;-52
2023/10/26 03:46:52;;;;;;;1.05;0.40;;;;;;;;;;5106607;28;20131;-53
2023/10/26 03:49:19;;;;;;;1.48;0.47;;;;;;;;;;5116233;27;20054;-57
2023/10/26 03:51:45;;;;;;;0.68;0.57;;;;;;;;;;5113351;28;20089;-52
2023/10/26 03:54:12;;;;;;;1.15;0.40;;;;;;;;;;5113126;28;20122;-56
2023/10/26 03:56:40;;;;;;;0.73;0.47;;;;;;;;;;5113374;28;20488;-57
2023/10/26 03:59:07;;;;;;;0.90;0.47;;;;;;;;;;5101773;28;20127;-56
2023/10/26 04:01:34;;;;;;;1.77;0.63;;;;;;;;;;5107737;28;20122;-54
2023/10/26 04:04:02;;;;;;;2.15;0.68;;;;;;;;;;5113034;28;20048;-55
2023/10/26 04:06:30;;;;;;;1.65;0.52;;;;;;;;;;5104498;28;20390;-55
2023/10/26 04:08:57;;;;;;;1.75;0.55;;;;;;;;;;5112056;28;20085;-54
2023/10/26 04:11:24;;;;;;;2.00;0.60;;;;;;;;;;5109371;27;20455;-51
2023/10/26 04:13:53;;;;;;;1.48;0.50;;;;;;;;;;5102470;28;20749;-54
2023/10/26 04:16:20;;;;;;;1.30;0.57;;;;;;;;;;5108625;28;20044;-53
2023/10/26 04:18:47;;;;;;;2.50;0.82;;;;;;;;;;5109284;28;20043;-51
2023/10/26 04:21:13;;;;;;;1.80;0.60;;;;;;;;;;5112893;28;20126;-52
2023/10/26 04:23:40;;;;;;;1.55;0.70;;;;;;;;;;5112640;28;20043;-52
2023/10/26 04:26:08;;;;;;;2.38;0.77;;;;;;;;;;5112538;28;20078;-51
2023/10/26 04:28:35;;;;;;;3.55;0.80;;;;;;;;;;5112686;28;20055;-53
2023/10/26 04:31:04;;;;;;;2.47;0.80;;;;;;;;;;5110320;28;20044;-50
2023/10/26 04:33:31;;;;;;;1.73;0.65;;;;;;;;;;5091715;28;20047;-53
2023/10/26 04:36:00;;;;;;;2.95;0.80;;;;;;;;;;5091961;28;20054;-52
2023/10/26 04:38:27;;;;;;;2.28;0.70;;;;;;;;;;5091840;28;20467;-51
2023/10/26 04:40:54;;;;;;;1.85;0.80;;;;;;;;;;5111101;27;20079;-49
2023/10/26 04:43:20;;;;;;;2.03;0.68;;;;;;;;;;5104860;28;20479;-49
2023/10/26 04:45:47;;;;;;;1.50;0.63;;;;;;;;;;5101118;28;20044;-52
2023/10/26 04:48:15;;;;;;;2.53;0.73;;;;;;;;;;5093371;28;20127;-52
2023/10/26 04:50:42;;;;;;;2.13;0.82;;;;;;;;;;5102790;28;20507;-54
2023/10/26 04:53:09;;;;;;;2.42;0.55;;;;;;;;;;5111979;28;20065;-52
2023/10/26 04:55:35;;;;;;;2.20;0.70;;;;;;;;;;5112166;28;20050;-55
2023/10/26 04:58:03;;;;;;;2.90;0.80;;;;;;;;;;5101635;28;20132;-51
2023/10/26 05:00:30;;;;;;;2.00;0.70;;;;;;;;;;5091572;28;20466;-53
2023/10/26 05:02:57;;;;;;;2.60;0.65;;;;;;;;;;5110000;28;20461;-51
2023/10/26 05:05:25;;;;;;;1.80;0.52;;;;;;;;;;5111926;28;20106;-53
2023/10/26 05:07:51;;;;;;;2.80;0.80;;;;;;;;;;5112090;28;20040;-48
2023/10/26 05:10:18;;;;;;;3.60;1.05;;;;;;;;;;5112069;28;20135;-50
2023/10/26 05:12:45;;;;;;;3.05;1.00;;;;;;;;;;5095983;28;20522;-53
2023/10/26 05:15:11;;;;;;;4.55;1.00;;;;;;;;;;5091595;28;20474;-48
2023/10/26 05:17:38;;;;;;;2.35;1.00;;;;;;;;;;5103000;28;20067;-52
2023/10/26 05:20:06;;;;;;;2.60;1.10;;;;;;;;;;5111597;28;20418;-54
2023/10/26 05:22:34;;;;;;;2.47;0.93;;;;;;;;;;5111536;28;20511;-50
2023/10/26 05:25:04;;;;;;;3.97;1.48;;;;;;;;;;5110202;28;20127;-54
2023/10/26 05:27:31;;;;;;;5.93;1.33;;;;;;;;;;5091582;28;20553;-55
2023/10/26 05:29:58;;;;;;;5.15;1.48;;;;;;;;;;5092720;28;20058;-49
2023/10/26 05:32:25;;;;;;;3.55;1.70;;;;;;;;;;5111745;28;20086;-53
2023/10/26 05:34:52;;;;;;;5.03;1.70;;;;;;;;;;5111546;28;20051;-54
2023/10/26 05:37:18;;;;;;;5.28;1.50;;;;;;;;;;5111806;28;20047;-50
2023/10/26 05:39:47;;;;;;;3.63;1.30;;;;;;;;;;5111857;28;20118;-51
2023/10/26 05:42:13;;;;;;;2.92;1.15;;;;;;;;;;5103005;28;20044;-49
2023/10/26 05:44:41;;;;;;;4.70;1.27;;;;;;;;;;5111085;28;20044;-53
2023/10/26 05:47:08;;;;;;;5.13;1.77;;;;;;;;;;5111651;28;20135;-52
2023/10/26 05:49:35;;;;;;;3.15;1.40;;;;;;;;;;5096860;28;20423;-51
2023/10/26 05:52:03;;;;;;;3.35;1.30;;;;;;;;;;5091170;28;20052;-49
2023/10/26 05:54:30;;;;;;;3.22;1.45;;;;;;;;;;5101021;28;20049;-50
2023/10/26 05:56:58;;;;;;;3.53;1.10;;;;;;;;;;5093283;28;20044;-51
2023/10/26 05:59:24;;;;;;;4.45;1.25;;;;;;;;;;5091142;28;20127;-54
2023/10/26 06:01:51;;;;;;;2.85;1.40;;;;;;;;;;5091275;28;20044;-52
2023/10/26 06:04:18;;;;;;;4.10;1.50;;;;;;;;;;5091395;28;20048;-51
2023/10/26 06:06:44;;;;;;;3.97;0.95;;;;;;;;;;5091076;28;20059;-49
2023/10/26 06:09:12;;;;;;;2.88;1.48;;;;;;;;;;5091295;28;20086;-51
2023/10/26 06:11:38;;;;;;;3.67;1.02;;;;;;;;;;5090930;28;20052;-50
2023/10/26 06:14:06;;;;;;;2.03;1.00;;;;;;;;;;5090806;28;20051;-50
2023/10/26 06:16:33;;;;;;;3.00;0.90;;;;;;;;;;5090937;28;20048;-49
2023/10/26 06:19:00;;;;;;;3.33;0.88;;;;;;;;;;5090840;28;20510;-53
2023/10/26 06:21:27;;;;;;;1.95;1.20;;;;;;;;;;5091057;28;20048;-50
2023/10/26 06:23:54;;;;;;;2.67;0.90;;;;;;;;;;5096234;28;20477;-50
2023/10/26 06:26:21;;;;;;;1.67;0.60;;;;;;;;;;5103147;28;20054;-54
2023/10/26 06:28:47;;;;;;;1.65;0.65;;;;;;;;;;5103240;28;20039;-51
2023/10/26 06:31:16;;;;;;;1.73;0.52;;;;;;;;;;5106166;28;20461;-56
2023/10/26 06:33:43;;;;;;;2.42;0.68;;;;;;;;;;5100702;28;20079;-52
2023/10/26 06:36:10;;;;;;;1.95;0.70;;;;;;;;;;5102882;28;20117;-52
2023/10/26 06:38:38;;;;;;;2.25;0.88;;;;;;;;;;5109589;28;20050;-52
2023/10/26 06:41:05;;;;;;;1.65;0.70;;;;;;;;;;5116805;27;20047;-50
2023/10/26 06:43:34;;;;;;;1.73;1.15;;;;;;;;;;5108642;27;20397;-50
2023/10/26 06:46:01;;;;;;;2.40;0.80;;;;;;;;;;5119034;27;20506;-52
2023/10/26 06:48:29;;;;;;;2.67;0.80;;;;;;;;;;5117817;27;20047;-51
2023/10/26 06:51:00;;;;;;;4.13;0.90;;;;;;;;;;5108797;27;20043;-55
2023/10/26 06:53:28;;;;;;;7.93;1.45;;;;;;;;;;5100657;27;20350;-49
2023/10/26 06:55:55;;;;;;;3.88;0.70;;;;;;;;;;5111410;28;20047;-54
2023/10/26 06:58:22;;;;;;;2.38;0.80;;;;;;;;;;5106097;28;20502;-50
2023/10/26 07:00:48;;;;;;;1.40;0.47;;;;;;;;;;5107062;27;20071;-49
2023/10/26 07:03:15;;;;;;;1.85;0.73;;;;;;;;;;5118875;27;20054;-49
2023/10/26 07:05:43;;;;;;;1.48;0.52;;;;;;;;;;5106671;28;20407;-50
2023/10/26 07:08:10;;;;;;;3.35;0.80;;;;;;;;;;5110862;28;20131;-54
2023/10/26 07:10:39;;;;;;;1.98;0.80;;;;;;;;;;5108969;28;20071;-49
2023/10/26 07:13:07;;;;;;;2.65;0.80;;;;;;;;;;5112024;27;20043;-57
2023/10/26 07:15:35;;;;;;;1.42;0.70;;;;;;;;;;5114470;27;20040;-53
2023/10/26 07:18:01;;;;;;;1.55;0.85;;;;;;;;;;5116013;27;20097;-54
2023/10/26 07:20:28;;;;;;;2.50;0.70;;;;;;;;;;5114985;27;20126;-56
2023/10/26 07:22:56;;;;;;;1.58;0.70;;;;;;;;;;5105663;28;20066;-50
2023/10/26 07:25:23;;;;;;;2.90;0.95;;;;;;;;;;5115705;27;20131;-55
2023/10/26 07:27:49;;;;;;;4.07;1.05;;;;;;;;;;5119289;27;20043;-51
2023/10/26 07:30:16;;;;;;;1.88;0.80;;;;;;;;;;5107286;27;20471;-50
2023/10/26 07:32:43;;;;;;;3.00;0.90;;;;;;;;;;5107362;27;20075;-56
2023/10/26 07:35:09;;;;;;;2.85;0.88;;;;;;;;;;5119413;27;20051;-53
2023/10/26 07:37:37;;;;;;;2.78;0.98;;;;;;;;;;5113692;28;20122;-50
2023/10/26 07:40:07;;;;;;;2.80;0.63;;;;;;;;;;5112589;28;20051;-53
2023/10/26 07:42:34;;;;;;;0.80;0.50;;;;;;;;;;5113924;27;20510;-54
2023/10/26 07:45:01;;;;;;;3.63;0.70;;;;;;;;;;5118826;27;20067;-49
2023/10/26 07:47:27;;;;;;;2.05;0.70;;;;;;;;;;5118725;27;20104;-53
2023/10/26 07:49:54;;;;;;;1.83;0.70;;;;;;;;;;5116296;27;20074;-51
2023/10/26 07:52:21;;;;;;;2.28;0.70;;;;;;;;;;5114817;27;20122;-50
2023/10/26 07:54:48;;;;;;;1.77;0.63;;;;;;;;;;5110741;27;20069;-55
2023/10/26 07:57:16;;;;;;;2.10;0.68;;;;;;;;;;5112324;27;20491;-53
2023/10/26 07:59:43;;;;;;;1.88;0.75;;;;;;;;;;5113050;28;20043;-52
2023/10/26 08:02:09;;;;;;;2.35;0.60;;;;;;;;;;5110354;27;20146;-49
2023/10/26 08:04:36;;;;;;;2.85;0.70;;;;;;;;;;5119466;27;20070;-50
2023/10/26 08:07:03;;;;;;;2.08;0.68;;;;;;;;;;5117558;27;20145;-54
2023/10/26 08:09:32;;;;;;;2.22;0.77;;;;;;;;;;5119040;27;20476;-53
2023/10/26 08:11:59;;;;;;;1.27;0.47;;;;;;;;;;5112991;27;20051;-53
2023/10/26 08:14:29;;;;;;;2.67;0.70;;;;;;;;;;5112525;27;20454;-52
2023/10/26 08:16:56;;;;;;;;;;;;;;;;;;5119496;27;20044;-53
2023/10/26 08:19:23;;;;;;;3.03;0.90;;;;;;;;;;5112749;28;20026;-49
2023/10/26 08:21:50;;;;;;;3.88;0.90;;;;;;;;;;5112595;28;20097;-51
2023/10/26 08:24:16;;;;;;;2.60;0.60;;;;;;;;;;5112681;28;20519;-51
2023/10/26 08:26:43;;;;;;;1.85;0.70;;;;;;;;;;5096737;28;20491;-49
2023/10/26 08:29:10;;;;;;;2.08;0.55;;;;;;;;;;5092192;28;20143;-51
2023/10/26 08:31:38;;;;;;;1.52;0.50;;;;;;;;;;5106988;28;20465;-51
2023/10/26 08:34:04;;;;;;;2.05;0.65;;;;;;;;;;5109533;27;20079;-50
2023/10/26 08:36:31;;;;;;;2.50;0.50;;;;;;;;;;5113666;27;20553;-51
2023/10/26 08:38:58;;;;;;;2.30;0.70;;;;;;;;;;5113199;27;20043;-50
2023/10/26 08:41:24;;;;;;;1.92;0.90;;;;;;;;;;5116759;27;20046;-52
2023/10/26 08:43:51;;;;;;;2.25;0.90;;;;;;;;;;5102510;27;20127;-53
2023/10/26 08:46:19;;;;;;;2.53;0.77;;;;;;;;;;5118825;27;20086;-53
2023/10/26 08:48:49;;;;;;;1.60;0.70;;;;;;;;;;5113201;28;20050;-50
2023/10/26 08:51:16;;;;;;;2.35;0.70;;;;;;;;;;5109927;28;20119;-50
2023/10/26 08:53:43;;;;;;;1.02;0.47;;;;;;;;;;5110560;28;20063;-52
2023/10/26 08:56:11;;;;;;;1.77;0.80;;;;;;;;;;5112163;27;20096;-51
2023/10/26 08:58:38;;;;;;;2.78;0.55;;;;;;;;;;5113541;27;20122;-50
2023/10/26 09:01:06;;;;;;;1.63;0.60;;;;;;;;;;5116564;27;20051;-52
2023/10/26 09:03:35;;;;;;;1.48;0.90;;;;;;;;;;5111773;28;20522;-53
2023/10/26 09:06:03;;;;;;;3.83;0.90;;;;;;;;;;5112330;28;20075;-49
2023/10/26 09:08:30;;;;;;;3.28;1.40;;;;;;;;;;5117247;27;20046;-49
2023/10/26 09:10:57;;;;;;;2.92;0.95;;;;;;;;;;5109013;28;20055;-50
2023/10/26 09:13:26;;;;;;;3.17;0.90;;;;;;;;;;5091279;28;20127;-52
2023/10/26 09:15:57;;;;;;;2.42;0.65;;;;;;;;;;5091548;28;20361;-51
2023/10/26 09:18:23;;;;;;;1.45;0.70;;;;;;;;;;5106912;28;20067;-53
2023/10/26 09:21:05;;;;;;;2.75;0.90;;;;;;;;;;5109283;28;20050;-52
2023/10/26 09:23:33;;;;;;;2.00;1.60;;;;;;;;;;5113380;27;20051;-52
2023/10/26 09:26:02;;;;;;;1.85;1.10;;;;;;;;;;5110216;28;20486;-52
2023/10/26 09:28:28;;;;;;;4.20;1.20;;;;;;;;;;5108827;27;20039;-55
2023/10/26 09:31:00;;;;;;;4.20;1.00;;;;;;;;;;5110976;27;20126;-52
2023/10/26 09:33:27;;;;;;;3.92;1.20;;;;;;;;;;5107245;28;20043;-52
2023/10/26 09:35:54;;;;;;;2.20;0.90;;;;;;;;;;5111690;28;20044;-51
2023/10/26 09:38:36;;;;;;;3.40;0.82;;;;;;;;;;5106066;28;20476;-54
2023/10/26 09:41:06;;;;;;;2.03;0.70;;;;;;;;;;5110959;28;20039;-53
2023/10/26 09:43:33;;;;;;;1.93;0.70;;;;;;;;;;5111070;28;20054;-54
2023/10/26 09:46:00;;;;;;;1.00;0.50;;;;;;;;;;5102306;28;20351;-48
2023/10/26 09:48:27;;;;;;;2.05;0.70;;;;;;;;;;5113677;28;20500;-50
2023/10/26 09:51:00;;;;;;;1.35;0.65;;;;;;;;;;5112390;28;20040;-49
2023/10/26 09:53:30;;;;;;;1.92;0.60;;;;;;;;;;5110984;28;20111;-48
2023/10/26 09:55:59;;;;;;;1.80;0.68;;;;;;;;;;5115661;28;20731;-50
2023/10/26 09:58:31;;;;;;;1.40;0.63;;;;;;;;;;5109440;28;20472;-52
2023/10/26 10:00:58;;;;;;;1.42;0.52;;;;;;;;;;5109258;28;20118;-52
2023/10/26 10:03:26;;;;;;;1.73;0.65;;;;;;;;;;5104040;28;20075;-52
2023/10/26 10:05:52;;;;;;;1.60;0.60;;;;;;;;;;5110634;28;20055;-53
2023/10/26 10:08:52;;;;;;;1.00;0.50;;;;;;;;;;5111540;28;20134;-51
2023/10/26 10:11:20;;;;;;;2.00;0.65;;;;;;;;;;5113632;28;20533;-48
2023/10/26 10:13:47;;;;;;;1.60;0.73;;;;;;;;;;5114712;28;20050;-50
2023/10/26 10:16:51;;;;;;;2.67;0.73;;;;;;;;;;5114891;28;20134;-49
2023/10/26 10:19:19;;;;;;;2.38;0.70;;;;;;;;;;5103589;28;20044;-47
2023/10/26 10:21:47;;;;;;;1.00;0.55;;;;;;;;;;5111356;28;20075;-49
2023/10/26 10:24:47;;;;;;;1.80;0.60;;;;;;;;;;5114861;28;20123;-48
2023/10/26 10:27:16;;;;;;;1.77;0.60;;;;;;;;;;5111448;27;20090;-48
2023/10/26 10:29:43;;;;;;;1.65;0.70;;;;;;;;;;5113586;27;20415;-51
2023/10/26 10:32:11;;;;;;;2.22;0.82;;;;;;;;;;5112663;28;20130;-50
2023/10/26 10:34:43;;;;;;;1.92;0.75;;;;;;;;;;5112398;28;20514;-52
2023/10/26 10:37:13;;;;;;;2.47;0.90;;;;;;;;;;5112671;28;20151;-54
2023/10/26 10:40:13;;;;;;;2.35;0.95;;;;;;;;;;5114562;28;20131;-50
2023/10/26 10:42:46;;;;;;;2.77;0.70;;;;;;;;;;5109955;28;20053;-52
2023/10/26 10:45:13;;;;;;;2.15;0.90;;;;;;;;;;5095053;28;20419;-52
2023/10/26 10:47:40;;;;;;;2.10;0.90;;;;;;;;;;5117787;27;20049;-58
2023/10/26 10:50:17;;;;;;;2.97;0.98;;;;;;;;;;5117445;27;20058;-54
2023/10/26 10:52:44;;;;;;;3.25;1.35;;;;;;;;;;5118214;27;20050;-59
2023/10/26 10:55:11;;;;;;;3.65;1.50;;;;;;;;;;5120454;27;20047;-51
2023/10/26 10:57:57;;;;;;;7.15;2.30;;;;;;;;;;5117639;27;20126;-50
2023/10/26 11:00:25;;;;;;;8.65;3.70;;;;;;;;;;5114049;27;20082;-55
2023/10/26 11:02:56;;;;;;;4.80;2.33;;;;;;;;;;5114377;28;20048;-50
2023/10/26 11:05:35;;;;;;;7.38;2.15;;;;;;;;;;5112951;27;20417;-51
2023/10/26 11:08:01;;;;;;;6.03;2.67;;;;;;;;;;5114574;27;20044;-52
2023/10/26 11:10:28;;;;;;;7.03;3.10;;;;;;;;;;5117469;27;20141;-57
2023/10/26 11:12:55;;;;;;;8.23;3.10;;;;;;;;;;5118956;27;20070;-55
2023/10/26 11:15:31;;;;;;;8.57;3.08;;;;;;;;;;5117561;27;20047;-51
2023/10/26 11:17:58;;;;;;;5.13;2.50;;;;;;;;;;5112969;27;20126;-50
2023/10/26 11:20:34;;;;;;;6.15;3.15;;;;;;;;;;5112440;28;20076;-51
2023/10/26 11:23:01;;;;;;;4.68;2.08;;;;;;;;;;5103534;27;20048;-53
2023/10/26 11:25:28;;;;;;;6.03;3.00;;;;;;;;;;5113655;27;20459;-56
2023/10/26 11:27:55;;;;;;;5.78;2.80;;;;;;;;;;5109453;27;20043;-53
2023/10/26 11:30:23;;;;;;;5.43;2.30;;;;;;;;;;5109085;28;20538;-53
2023/10/26 11:32:50;;;;;;;5.53;2.20;;;;;;;;;;5109392;28;20100;-56
2023/10/26 11:35:17;;;;;;;5.55;2.50;;;;;;;;;;5101301;28;20071;-49
2023/10/26 11:37:46;;;;;;;5.70;2.67;;;;;;;;;;5112852;28;20142;-51
2023/10/26 11:40:14;;;;;;;6.07;2.88;;;;;;;;;;5114439;27;20082;-57
2023/10/26 11:42:46;;;;;;;6.32;2.92;;;;;;;;;;5113772;27;20062;-50
2023/10/26 11:45:14;;;;;;;5.90;2.20;;;;;;;;;;5103391;27;20036;-54
2023/10/26 11:47:47;;;;;;;3.88;2.05;;;;;;;;;;5105726;27;20146;-50
2023/10/26 11:50:22;;;;;;;5.85;1.95;;;;;;;;;;5113396;27;20156;-56
2023/10/26 11:52:49;;;;;;;3.97;1.77;;;;;;;;;;5119273;27;20121;-55
2023/10/26 11:55:17;;;;;;;4.35;1.73;;;;;;;;;;5112283;27;20050;-55
2023/10/26 11:57:44;;;;;;;5.22;1.80;;;;;;;;;;5108596;28;20553;-51
2023/10/26 12:00:14;;;;;;;3.60;1.60;;;;;;;;;;5105279;27;20130;-52
2023/10/26 12:02:41;;;;;;;3.30;1.90;;;;;;;;;;5110673;27;20116;-54
2023/10/26 12:05:13;;;;;;;4.63;2.17;;;;;;;;;;5104328;28;20040;-54
2023/10/26 12:07:39;;;;;;;6.50;2.08;;;;;;;;;;5109779;28;20047;-55
2023/10/26 12:10:07;;;;;;;7.78;2.25;;;;;;;;;;5109823;28;20051;-51
2023/10/26 12:12:33;;;;;;;7.93;2.47;;;;;;;;;;5109206;28;20114;-49
2023/10/26 12:15:00;;;;;;;4.53;2.22;;;;;;;;;;5102338;28;20423;-55
2023/10/26 12:17:27;;;;;;;4.60;2.00;;;;;;;;;;5107318;28;20050;-56
2023/10/26 12:19:53;;;;;;;6.43;2.30;;;;;;;;;;5107625;28;20097;-56
2023/10/26 12:22:21;;;;;;;5.38;1.63;;;;;;;;;;5107231;28;20123;-54
2023/10/26 12:24:48;;;;;;;3.22;1.60;;;;;;;;;;5100217;28;20083;-53
2023/10/26 12:27:16;;;;;;;4.72;1.75;;;;;;;;;;5100621;28;20123;-53
2023/10/26 12:29:43;;;;;;;5.78;1.73;;;;;;;;;;5099439;28;20044;-56
2023/10/26 12:32:10;;;;;;;3.80;1.08;;;;;;;;;;5110388;27;20065;-53
2023/10/26 12:34:36;;;;;;;4.40;1.92;;;;;;;;;;5115971;27;20282;-53
2023/10/26 12:37:03;;;;;;;4.00;1.90;;;;;;;;;;5098853;27;20044;-53
2023/10/26 12:39:31;;;;;;;3.67;1.60;;;;;;;;;;5107125;27;20082;-52
2023/10/26 12:41:58;;;;;;;4.07;1.50;;;;;;;;;;5107309;28;20063;-55
2023/10/26 12:44:25;;;;;;;3.80;1.60;;;;;;;;;;5111717;27;20423;-54
2023/10/26 12:46:52;;;;;;;4.28;1.77;;;;;;;;;;5102983;27;20039;-55
2023/10/26 12:49:18;;;;;;;2.58;1.20;;;;;;;;;;5109839;27;20122;-52
2023/10/26 12:51:46;;;;;;;2.70;1.25;;;;;;;;;;5100123;28;20115;-55
2023/10/26 12:54:13;;;;;;;2.53;1.00;;;;;;;;;;5112912;27;20047;-57
2023/10/26 12:56:41;;;;;;;3.70;1.17;;;;;;;;;;5104037;28;20127;-57
2023/10/26 12:59:08;;;;;;;2.28;1.20;;;;;;;;;;5102903;28;20122;-50
2023/10/26 13:01:35;;;;;;;2.85;1.35;;;;;;;;;;5102083;28;20044;-55
2023/10/26 13:04:01;;;;;;;2.58;1.08;;;;;;;;;;5102861;28;20497;-56
2023/10/26 13:06:28;;;;;;;1.95;1.10;;;;;;;;;;5110160;27;20540;-54
2023/10/26 13:08:54;;;;;;;2.85;1.20;;;;;;;;;;5105518;28;20130;-56
2023/10/26 13:11:21;;;;;;;2.63;1.20;;;;;;;;;;5102206;27;20058;-52
2023/10/26 13:13:49;;;;;;;1.90;0.93;;;;;;;;;;5112366;27;20478;-51
2023/10/26 13:16:16;;;;;;;2.20;1.08;;;;;;;;;;5112646;27;20054;-56
2023/10/26 13:18:43;;;;;;;2.67;1.00;;;;;;;;;;5106712;28;20578;-53
2023/10/26 13:21:10;;;;;;;2.53;1.02;;;;;;;;;;5109427;27;20056;-57
2023/10/26 13:23:36;;;;;;;2.97;1.00;;;;;;;;;;5111038;28;20071;-58
2023/10/26 13:26:03;;;;;;;3.35;1.00;;;;;;;;;;5109852;27;20050;-57
2023/10/26 13:28:29;;;;;;;3.08;1.00;;;;;;;;;;5110335;27;20051;-53
2023/10/26 13:30:57;;;;;;;2.28;0.80;;;;;;;;;;5110261;27;20138;-57
2023/10/26 13:33:25;;;;;;;2.20;0.90;;;;;;;;;;5112483;27;20048;-57
2023/10/26 13:35:53;;;;;;;3.75;1.23;;;;;;;;;;5107203;28;20040;-57
2023/10/26 13:38:20;;;;;;;2.28;0.82;;;;;;;;;;5103105;28;20461;-55
2023/10/26 13:40:47;;;;;;;2.88;1.02;;;;;;;;;;5099752;28;20131;-57
2023/10/26 13:43:15;;;;;;;2.63;1.30;;;;;;;;;;5107010;28;20097;-55
2023/10/26 13:45:42;;;;;;;2.60;1.13;;;;;;;;;;5112902;27;20491;-54
2023/10/26 13:48:11;;;;;;;3.80;1.27;;;;;;;;;;5111836;28;20090;-57
2023/10/26 13:50:38;;;;;;;2.25;1.10;;;;;;;;;;5111963;28;20148;-57
2023/10/26 13:53:05;;;;;;;2.67;1.20;;;;;;;;;;5109923;28;20387;-57
2023/10/26 13:55:33;;;;;;;4.45;1.30;;;;;;;;;;5105642;28;20079;-57
2023/10/26 13:58:00;;;;;;;5.00;1.40;;;;;;;;;;5107067;28;20387;-52
2023/10/26 14:00:27;;;;;;;3.65;1.27;;;;;;;;;;5109944;28;20445;-57
2023/10/26 14:02:54;;;;;;;5.53;1.48;;;;;;;;;;5103829;28;20522;-56
2023/10/26 14:05:22;;;;;;;3.53;1.48;;;;;;;;;;5110570;28;20105;-56
2023/10/26 14:07:49;;;;;;;4.68;1.52;;;;;;;;;;5103432;28;20044;-57
2023/10/26 14:10:15;;;;;;;4.32;1.00;;;;;;;;;;5094715;28;20052;-57
2023/10/26 14:12:42;;;;;;;3.92;1.25;;;;;;;;;;5107456;28;20108;-55
2023/10/26 14:15:10;;;;;;;4.53;1.20;;;;;;;;;;5110378;27;20047;-53
2023/10/26 14:17:39;;;;;;;3.42;1.05;;;;;;;;;;5113137;28;20088;-56
2023/10/26 14:20:07;;;;;;;4.22;1.30;;;;;;;;;;5110134;28;20145;-54
2023/10/26 14:22:35;;;;;;;6.70;1.52;;;;;;;;;;5106014;28;20075;-57
2023/10/26 14:25:02;;;;;;;5.50;1.20;;;;;;;;;;5113176;28;20047;-55
2023/10/26 14:27:28;;;;;;;5.30;1.00;;;;;;;;;;5108460;27;20127;-56
2023/10/26 14:29:55;;;;;;;4.18;1.20;;;;;;;;;;5111125;28;20039;-55
2023/10/26 14:32:22;;;;;;;5.65;1.48;;;;;;;;;;5110974;28;20050;-54
2023/10/26 14:34:48;;;;;;;4.82;1.55;;;;;;;;;;5103471;28;20123;-54
2023/10/26 14:37:15;;;;;;;6.90;1.40;;;;;;;;;;5105986;28;20052;-56
2023/10/26 14:39:44;;;;;;;4.10;1.10;;;;;;;;;;5098765;28;20051;-57
2023/10/26 14:42:12;;;;;;;6.10;1.75;;;;;;;;;;5102108;28;20122;-55
2023/10/26 14:44:39;;;;;;;7.15;2.42;;;;;;;;;;5112609;27;20039;-52
2023/10/26 14:47:06;;;;;;;7.55;1.40;;;;;;;;;;5107385;28;20090;-53